Time;durP1;ratioP1;P1;durP2;ratioP2;P2;SDS_P1;SDS_P2;PMS_P1;PMS_P2;Temp;Humidity;BMP_temperature;BMP_pressure;BME280_temperature;BME280_humidity;BME280_pressure;Samples;Min_cycle;Max_cycle;Signal;HPM_P1;HPM_P2
2023/04/23 00:01:54;;;;;;;23.47;13.40;;;11.20;99.90;;;;;;4994007;28;20650;-82
2023/04/23 00:04:22;;;;;;;23.63;13.00;;;11.10;99.90;;;;;;4995606;28;20540;-83
2023/04/23 00:06:51;;;;;;;23.30;12.60;;;11.10;99.90;;;;;;4977622;28;20232;-82
2023/04/23 00:09:18;;;;;;;29.33;13.60;;;11.10;99.90;;;;;;4994104;28;20207;-82
2023/04/23 00:11:46;;;;;;;22.17;13.20;;;11.10;99.90;;;;;;4978249;28;20204;-83
2023/04/23 00:14:13;;;;;;;30.50;13.63;;;11.00;99.90;;;;;;4977400;28;20620;-85
2023/04/23 00:16:40;;;;;;;22.57;13.30;;;11.00;99.90;;;;;;4977739;28;20287;-87
2023/04/23 00:19:07;;;;;;;22.70;13.07;;;10.90;99.90;;;;;;4977711;28;20197;-88
2023/04/23 00:21:34;;;;;;;26.53;13.40;;;11.00;99.90;;;;;;4993920;28;20196;-87
2023/04/23 00:24:01;;;;;;;25.87;13.33;;;10.90;99.90;;;;;;4977529;28;20181;-87
2023/04/23 00:26:28;;;;;;;22.57;13.33;;;10.90;99.90;;;;;;4994618;28;20193;-87
2023/04/23 00:28:54;;;;;;;27.87;14.37;;;10.80;99.90;;;;;;4977857;28;20211;-87
2023/04/23 00:31:23;;;;;;;22.03;13.10;;;10.90;99.90;;;;;;4977303;28;20197;-79
2023/04/23 00:33:50;;;;;;;26.13;12.60;;;10.90;99.90;;;;;;4976874;28;20260;-80
2023/04/23 00:36:20;;;;;;;22.40;12.90;;;10.70;99.90;;;;;;4976923;28;20204;-81
2023/04/23 00:38:46;;;;;;;22.87;12.87;;;10.70;99.90;;;;;;4977162;28;20670;-81
2023/04/23 00:41:14;;;;;;;24.17;13.50;;;10.70;99.90;;;;;;4961034;28;20204;-84
2023/04/23 00:43:41;;;;;;;23.43;12.57;;;10.60;99.90;;;;;;4977348;28;20197;-80
2023/04/23 00:46:08;;;;;;;23.80;13.10;;;10.50;99.90;;;;;;4993780;28;20200;-82
2023/04/23 00:48:36;;;;;;;24.93;13.43;;;10.50;99.90;;;;;;4993927;28;20576;-80
2023/04/23 00:51:04;;;;;;;24.77;13.60;;;10.50;99.90;;;;;;4976816;28;20199;-80
2023/04/23 00:53:33;;;;;;;23.97;13.17;;;10.40;99.90;;;;;;4976727;28;20197;-81
2023/04/23 00:56:03;;;;;;;24.20;13.03;;;10.40;99.90;;;;;;4960546;28;20612;-82
2023/04/23 00:58:31;;;;;;;25.57;12.93;;;10.40;99.90;;;;;;4994097;28;20283;-82
2023/04/23 01:01:00;;;;;;;26.67;13.37;;;10.40;99.90;;;;;;4978672;28;20200;-87
2023/04/23 01:03:28;;;;;;;22.40;12.97;;;10.30;99.90;;;;;;4977613;28;20243;-83
2023/04/23 01:05:55;;;;;;;22.73;12.87;;;10.30;99.90;;;;;;4993985;28;20201;-82
2023/04/23 01:08:24;;;;;;;23.80;12.67;;;10.30;99.90;;;;;;4976873;28;20243;-85
2023/04/23 01:10:52;;;;;;;24.00;13.27;;;10.20;99.90;;;;;;4976711;28;20197;-82
2023/04/23 01:13:21;;;;;;;27.37;13.97;;;10.20;99.90;;;;;;4976589;28;20653;-86
2023/04/23 01:15:48;;;;;;;25.40;13.83;;;10.10;99.90;;;;;;4977003;28;20647;-83
2023/04/23 01:18:15;;;;;;;24.03;12.83;;;10.20;99.90;;;;;;4977063;28;20222;-84
2023/04/23 01:20:42;;;;;;;26.67;12.90;;;10.10;99.90;;;;;;4994247;28;20255;-83
2023/04/23 01:23:10;;;;;;;20.80;12.53;;;10.00;99.90;;;;;;4976348;28;20280;-84
2023/04/23 01:25:37;;;;;;;22.10;12.13;;;10.00;99.90;;;;;;4976653;28;20208;-80
2023/04/23 01:28:08;;;;;;;23.67;13.77;;;10.00;99.90;;;;;;4976167;28;20228;-82
2023/04/23 01:30:35;;;;;;;23.37;12.50;;;10.00;99.90;;;;;;4976598;28;20197;-86
2023/04/23 01:33:05;;;;;;;21.87;12.20;;;10.00;99.90;;;;;;4975702;28;20240;-81
2023/04/23 01:35:33;;;;;;;21.60;11.77;;;9.90;99.90;;;;;;4976137;28;20651;-82
2023/04/23 01:38:02;;;;;;;22.10;12.93;;;9.90;99.90;;;;;;4995784;28;20688;-79
2023/04/23 01:40:29;;;;;;;21.03;12.43;;;9.90;99.90;;;;;;4981283;28;20568;-86
2023/04/23 01:42:57;;;;;;;23.00;12.43;;;9.90;99.90;;;;;;4979891;28;20220;-88
2023/04/23 01:45:24;;;;;;;21.50;12.23;;;9.90;99.90;;;;;;4993798;28;20193;-79
2023/04/23 01:47:51;;;;;;;26.00;13.30;;;9.90;99.90;;;;;;4975768;28;20311;-79
2023/04/23 01:50:20;;;;;;;22.37;12.30;;;9.90;99.90;;;;;;4976109;28;20624;-79
2023/04/23 01:52:47;;;;;;;21.47;12.10;;;9.80;99.90;;;;;;4993901;28;20193;-86
2023/04/23 01:55:14;;;;;;;21.30;12.00;;;9.80;99.90;;;;;;4976248;28;20197;-84
2023/04/23 01:57:41;;;;;;;19.83;11.50;;;9.70;99.90;;;;;;4973001;23;20721;-84
2023/04/23 02:00:10;;;;;;;20.57;12.20;;;9.70;99.90;;;;;;4975516;28;20291;-83
2023/04/23 02:02:39;;;;;;;21.53;12.00;;;9.80;99.90;;;;;;4993337;28;20193;-83
2023/04/23 02:05:17;;;;;;;20.80;12.17;;;9.70;99.90;;;;;;4993226;28;20212;-83
2023/04/23 02:07:47;;;;;;;20.50;12.03;;;9.60;99.90;;;;;;4983225;23;20605;-84
2023/04/23 02:10:14;;;;;;;22.87;12.50;;;9.70;99.90;;;;;;4975656;28;20204;-84
2023/04/23 02:12:45;;;;;;;22.30;12.17;;;9.70;99.90;;;;;;4991786;28;20652;-84
2023/04/23 02:15:14;;;;;;;20.23;12.13;;;9.60;99.90;;;;;;4991914;28;20200;-83
2023/04/23 02:17:41;;;;;;;18.13;10.80;;;9.50;99.90;;;;;;4975219;28;20651;-83
2023/04/23 02:21:13;;;;;;;21.00;12.30;;;9.50;99.90;;;;;;5032483;23;20171;-83
2023/04/23 02:23:40;;;;;;;20.97;11.87;;;9.60;99.90;;;;;;4991396;28;20207;-80
2023/04/23 02:26:07;;;;;;;23.10;11.83;;;9.50;99.90;;;;;;4975027;28;20681;-84
2023/04/23 02:28:34;;;;;;;22.50;12.23;;;9.60;99.90;;;;;;4991424;28;20221;-85
2023/04/23 02:31:00;;;;;;;23.63;12.73;;;9.60;99.90;;;;;;4991491;28;20209;-85
2023/04/23 02:33:27;;;;;;;21.67;12.17;;;9.60;99.90;;;;;;4991620;28;20228;-84
2023/04/23 02:35:54;;;;;;;22.70;12.40;;;9.50;99.90;;;;;;4992994;28;20181;-84
2023/04/23 02:38:21;;;;;;;20.87;11.70;;;9.40;99.90;;;;;;4991632;28;20193;-84
2023/04/23 02:40:49;;;;;;;24.40;12.23;;;9.40;99.90;;;;;;4997568;28;20207;-84
2023/04/23 02:43:17;;;;;;;22.27;12.27;;;9.30;99.90;;;;;;5012961;28;20196;-82
2023/04/23 02:45:44;;;;;;;21.13;12.37;;;9.40;99.90;;;;;;4994995;28;20306;-86
2023/04/23 02:48:11;;;;;;;22.37;11.47;;;9.30;99.90;;;;;;4994904;28;20712;-82
2023/04/23 02:50:38;;;;;;;21.90;12.43;;;9.40;99.90;;;;;;5012863;28;20200;-80
2023/04/23 02:53:04;;;;;;;23.07;12.43;;;9.40;99.90;;;;;;5012355;28;20203;-81
2023/04/23 02:55:31;;;;;;;22.70;12.90;;;9.40;99.90;;;;;;4994969;28;20574;-75
2023/04/23 02:57:59;;;;;;;23.47;12.37;;;9.40;99.90;;;;;;4994826;28;20204;-78
2023/04/23 03:00:28;;;;;;;19.70;12.20;;;9.20;99.90;;;;;;5012217;28;20188;-78
2023/04/23 03:02:55;;;;;;;30.13;12.77;;;9.20;99.90;;;;;;4994606;28;20200;-77
2023/04/23 03:05:22;;;;;;;21.50;12.70;;;9.10;99.90;;;;;;4994507;28;20291;-77
2023/04/23 03:07:49;;;;;;;21.47;13.13;;;9.10;99.90;;;;;;4994470;28;20805;-77
2023/04/23 03:10:17;;;;;;;26.10;13.00;;;9.00;99.90;;;;;;5015986;28;20249;-77
2023/04/23 03:12:44;;;;;;;22.30;12.70;;;9.00;99.90;;;;;;4998221;28;20625;-77
2023/04/23 03:15:11;;;;;;;22.03;12.70;;;9.00;99.90;;;;;;4998022;28;20208;-77
2023/04/23 03:17:38;;;;;;;21.93;12.77;;;9.00;99.90;;;;;;4997867;28;20192;-76
2023/04/23 03:20:07;;;;;;;23.33;13.47;;;8.90;99.90;;;;;;5015432;28;20308;-76
2023/04/23 03:22:34;;;;;;;23.90;12.77;;;8.90;99.90;;;;;;4997784;28;20227;-77
2023/04/23 03:25:02;;;;;;;22.90;13.53;;;8.90;99.90;;;;;;4997736;28;20219;-77
2023/04/23 03:27:29;;;;;;;25.63;14.57;;;8.90;99.90;;;;;;5015554;28;20212;-76
2023/04/23 03:29:56;;;;;;;25.07;13.57;;;8.90;99.90;;;;;;5015437;28;20219;-76
2023/04/23 03:32:23;;;;;;;25.43;13.47;;;8.80;99.90;;;;;;4997681;28;20202;-77
2023/04/23 03:34:50;;;;;;;27.03;14.67;;;8.90;99.90;;;;;;4997588;28;20261;-75
2023/04/23 03:37:17;;;;;;;29.60;14.20;;;8.80;99.90;;;;;;5015090;28;20211;-74
2023/04/23 03:39:44;;;;;;;24.60;13.73;;;8.80;99.90;;;;;;4997489;28;20196;-74
2023/04/23 03:42:11;;;;;;;22.47;13.43;;;8.80;99.90;;;;;;4997466;28;20312;-76
2023/04/23 03:44:37;;;;;;;26.00;14.37;;;8.80;99.90;;;;;;5015116;28;20196;-75
2023/04/23 03:47:04;;;;;;;23.90;14.37;;;8.70;99.90;;;;;;4997303;28;20622;-78
2023/04/23 03:49:31;;;;;;;25.80;14.10;;;8.70;99.90;;;;;;4997494;28;20286;-76
2023/04/23 03:51:58;;;;;;;28.43;14.17;;;8.70;99.90;;;;;;4981940;28;20192;-75
2023/04/23 03:54:27;;;;;;;24.07;14.30;;;8.70;99.90;;;;;;4997442;28;20208;-73
2023/04/23 03:56:53;;;;;;;23.47;13.87;;;8.70;99.90;;;;;;4997443;28;20213;-75
2023/04/23 03:59:21;;;;;;;22.83;13.83;;;8.70;99.90;;;;;;4997171;28;20200;-79
2023/04/23 04:01:48;;;;;;;27.23;14.37;;;8.60;99.90;;;;;;4997125;28;20207;-76
2023/04/23 04:04:16;;;;;;;26.17;14.37;;;8.60;99.90;;;;;;4997185;28;20200;-76
2023/04/23 04:06:43;;;;;;;27.20;14.83;;;8.60;99.90;;;;;;4997482;28;20184;-76
2023/04/23 04:09:10;;;;;;;25.87;14.17;;;8.70;99.90;;;;;;4997399;28;20224;-76
2023/04/23 04:11:37;;;;;;;24.97;14.50;;;8.80;99.90;;;;;;5014450;28;20195;-77
2023/04/23 04:14:04;;;;;;;24.67;14.00;;;8.80;99.90;;;;;;4996979;28;20204;-76
2023/04/23 04:16:31;;;;;;;25.13;14.53;;;8.80;99.90;;;;;;4996634;28;20192;-75
2023/04/23 04:18:58;;;;;;;24.27;14.40;;;8.80;99.90;;;;;;4996962;28;20204;-77
2023/04/23 04:21:24;;;;;;;24.33;14.13;;;8.80;99.90;;;;;;5013576;28;20589;-78
2023/04/23 04:23:52;;;;;;;26.90;13.93;;;8.90;99.90;;;;;;4996822;28;20197;-77
2023/04/23 04:26:19;;;;;;;27.63;14.30;;;8.90;99.90;;;;;;4996622;28;20199;-78
2023/04/23 04:28:46;;;;;;;25.07;14.03;;;9.00;99.90;;;;;;5014192;28;20306;-79
2023/04/23 04:31:14;;;;;;;22.23;13.30;;;9.00;99.90;;;;;;4996729;28;20201;-76
2023/04/23 04:33:42;;;;;;;25.20;14.33;;;9.10;99.90;;;;;;4996666;28;20228;-80
2023/04/23 04:36:08;;;;;;;22.33;12.87;;;9.20;99.90;;;;;;4996543;28;20200;-80
2023/04/23 04:38:38;;;;;;;24.47;13.47;;;9.20;99.90;;;;;;5014176;28;20196;-78
2023/04/23 04:41:06;;;;;;;25.87;13.37;;;9.40;99.90;;;;;;4996708;28;20251;-80
2023/04/23 04:43:33;;;;;;;31.23;13.77;;;9.50;99.90;;;;;;5014178;28;20200;-80
2023/04/23 04:46:00;;;;;;;27.00;14.27;;;9.60;99.90;;;;;;4996322;28;20196;-79
2023/04/23 04:48:27;;;;;;;24.10;13.00;;;9.60;99.90;;;;;;5014100;28;20250;-79
2023/04/23 04:50:54;;;;;;;24.43;12.87;;;9.70;99.90;;;;;;4996535;28;20196;-78
2023/04/23 04:53:21;;;;;;;21.67;13.37;;;9.70;99.90;;;;;;4996240;28;20660;-80
2023/04/23 04:55:49;;;;;;;25.83;13.57;;;9.80;99.90;;;;;;4995881;28;20562;-80
2023/04/23 04:58:15;;;;;;;26.00;14.03;;;9.90;99.90;;;;;;5013718;28;20254;-80
2023/04/23 05:00:43;;;;;;;26.03;14.20;;;10.00;99.90;;;;;;4995972;28;20192;-80
2023/04/23 05:03:10;;;;;;;27.97;14.60;;;10.10;99.90;;;;;;4995975;28;20642;-79
2023/04/23 05:05:40;;;;;;;26.70;14.03;;;10.20;99.90;;;;;;5013660;28;20199;-78
2023/04/23 05:08:07;;;;;;;25.83;14.90;;;10.20;99.90;;;;;;4995762;28;20238;-78
2023/04/23 05:10:34;;;;;;;24.53;14.27;;;10.30;99.90;;;;;;4995597;28;20617;-77
2023/04/23 05:13:01;;;;;;;28.43;14.80;;;10.40;99.90;;;;;;4995759;28;20196;-79
2023/04/23 05:15:28;;;;;;;26.33;14.07;;;10.50;99.90;;;;;;4979069;28;20207;-78
2023/04/23 05:17:55;;;;;;;25.00;14.23;;;10.60;99.90;;;;;;4995972;28;20548;-76
2023/04/23 05:20:22;;;;;;;22.63;13.97;;;10.70;99.90;;;;;;4995903;28;20564;-76
2023/04/23 05:22:49;;;;;;;24.70;14.03;;;10.80;99.90;;;;;;4995800;28;20231;-80
2023/04/23 05:25:16;;;;;;;21.83;12.80;;;11.00;99.90;;;;;;4995611;28;20279;-77
2023/04/23 05:27:43;;;;;;;21.73;13.13;;;11.10;99.90;;;;;;4995623;28;20192;-76
2023/04/23 05:30:10;;;;;;;25.13;12.33;;;11.20;99.90;;;;;;4995275;28;20208;-77
2023/04/23 05:32:38;;;;;;;22.47;12.47;;;11.30;99.90;;;;;;5011758;28;20208;-77
2023/04/23 05:35:05;;;;;;;21.00;12.20;;;11.40;99.90;;;;;;4995534;28;20717;-76
2023/04/23 05:37:32;;;;;;;22.13;11.73;;;11.50;99.90;;;;;;4995269;28;20258;-76
2023/04/23 05:40:01;;;;;;;25.00;11.83;;;11.70;99.90;;;;;;4979686;28;20237;-76
2023/04/23 05:42:28;;;;;;;18.10;10.70;;;11.80;99.90;;;;;;4995265;28;20287;-77
2023/04/23 05:44:55;;;;;;;21.77;11.53;;;11.80;99.90;;;;;;4995188;28;20200;-78
2023/04/23 05:47:22;;;;;;;21.53;11.43;;;11.90;99.90;;;;;;4995603;28;20559;-78
2023/04/23 05:49:49;;;;;;;20.30;11.33;;;12.00;99.90;;;;;;5012881;28;20218;-78
2023/04/23 05:52:17;;;;;;;18.53;10.97;;;12.10;99.90;;;;;;5013360;28;20234;-79
2023/04/23 05:54:44;;;;;;;21.30;11.57;;;12.20;99.90;;;;;;4995356;28;20192;-77
2023/04/23 05:57:11;;;;;;;21.30;11.10;;;12.20;99.90;;;;;;5012874;28;20207;-76
2023/04/23 05:59:38;;;;;;;17.93;10.53;;;12.30;99.90;;;;;;4995510;28;20207;-78
2023/04/23 06:02:06;;;;;;;18.23;10.07;;;12.40;99.90;;;;;;4995192;28;20650;-77
2023/04/23 06:04:33;;;;;;;21.57;10.10;;;12.40;99.90;;;;;;4994859;28;20196;-77
2023/04/23 06:07:00;;;;;;;17.43;9.83;;;12.50;99.90;;;;;;4994957;28;20588;-78
2023/04/23 06:09:27;;;;;;;18.40;9.60;;;12.70;99.90;;;;;;4995114;28;20241;-73
2023/04/23 06:11:54;;;;;;;22.07;9.83;;;12.70;99.90;;;;;;4995209;28;20196;-77
2023/04/23 06:14:21;;;;;;;17.20;9.47;;;12.80;99.90;;;;;;4994788;28;20206;-74
2023/04/23 06:16:47;;;;;;;15.47;9.23;;;12.90;99.90;;;;;;4994787;28;20262;-73
2023/04/23 06:19:15;;;;;;;16.23;9.23;;;13.00;99.90;;;;;;4994984;28;20662;-74
2023/04/23 06:21:41;;;;;;;14.73;9.00;;;13.20;99.90;;;;;;4994835;28;20286;-74
2023/04/23 06:24:08;;;;;;;17.83;8.63;;;13.20;99.90;;;;;;5012429;28;20190;-75
2023/04/23 06:26:41;;;;;;;16.33;9.47;;;13.40;99.90;;;;;;5012284;28;20207;-74
2023/04/23 06:29:08;;;;;;;15.37;8.93;;;13.50;99.90;;;;;;5012409;28;20208;-77
2023/04/23 06:31:35;;;;;;;17.63;9.70;;;13.60;99.90;;;;;;5012858;28;20196;-76
2023/04/23 06:34:02;;;;;;;16.77;8.83;;;13.70;99.90;;;;;;4995162;28;20228;-78
2023/04/23 06:36:29;;;;;;;17.57;8.97;;;13.80;99.90;;;;;;5013228;28;20207;-77
2023/04/23 06:38:56;;;;;;;14.50;8.80;;;13.90;99.90;;;;;;5012294;28;20203;-76
2023/04/23 06:41:23;;;;;;;15.60;8.37;;;13.90;99.90;;;;;;4994744;28;20219;-77
2023/04/23 06:43:49;;;;;;;14.93;8.03;;;14.00;99.90;;;;;;4996094;28;20210;-77
2023/04/23 06:46:16;;;;;;;14.40;8.17;;;14.20;99.90;;;;;;5016232;28;20596;-77
2023/04/23 06:48:43;;;;;;;14.10;8.37;;;14.30;99.90;;;;;;4998580;28;20220;-77
2023/04/23 06:51:10;;;;;;;13.93;8.10;;;14.40;99.90;;;;;;4998794;28;20192;-77
2023/04/23 06:53:37;;;;;;;14.40;8.87;;;14.60;99.90;;;;;;4998571;28;20211;-78
2023/04/23 06:56:05;;;;;;;10.83;7.40;;;14.70;99.90;;;;;;4998361;28;20202;-78
2023/04/23 06:58:32;;;;;;;14.37;7.80;;;14.80;99.90;;;;;;4982134;28;20200;-75
2023/04/23 07:01:00;;;;;;;14.63;8.17;;;15.00;99.90;;;;;;4998309;28;20196;-77
2023/04/23 07:03:27;;;;;;;12.17;8.00;;;15.20;99.90;;;;;;4998529;28;20564;-79
2023/04/23 07:05:54;;;;;;;13.07;7.50;;;15.30;99.90;;;;;;5016269;28;20188;-77
2023/04/23 07:08:21;;;;;;;15.87;7.70;;;15.30;99.90;;;;;;4998256;28;20195;-78
2023/04/23 07:10:48;;;;;;;10.77;7.20;;;15.50;99.90;;;;;;4998352;28;20189;-79
2023/04/23 07:13:16;;;;;;;15.07;7.90;;;15.60;99.90;;;;;;4997987;28;20204;-78
2023/04/23 07:15:43;;;;;;;11.80;6.87;;;15.70;99.90;;;;;;4998315;28;20204;-78
2023/04/23 07:18:10;;;;;;;13.47;6.97;;;15.80;99.90;;;;;;4997918;28;20188;-78
2023/04/23 07:20:37;;;;;;;12.43;6.70;;;16.00;99.90;;;;;;4998095;28;20208;-79
2023/04/23 07:23:04;;;;;;;12.80;7.00;;;16.10;99.90;;;;;;4994682;28;20229;-73
2023/04/23 07:25:31;;;;;;;10.27;5.97;;;16.20;99.90;;;;;;4994635;28;20200;-77
2023/04/23 07:27:58;;;;;;;11.73;6.30;;;16.20;99.90;;;;;;4995513;28;20275;-75
2023/04/23 07:30:26;;;;;;;12.43;6.03;;;16.40;99.90;;;;;;4995881;28;20306;-77
2023/04/23 07:32:54;;;;;;;9.83;5.97;;;16.50;99.90;;;;;;4994501;28;20189;-76
2023/04/23 07:35:21;;;;;;;8.80;5.77;;;16.60;99.90;;;;;;4994361;28;20204;-76
2023/04/23 07:37:52;;;;;;;10.03;5.27;;;16.80;99.90;;;;;;4994259;28;20205;-76
2023/04/23 07:40:21;;;;;;;12.87;5.33;;;16.90;99.90;;;;;;4994035;28;20204;-77
2023/04/23 07:42:51;;;;;;;7.93;5.10;;;17.10;99.90;;;;;;4978241;28;20292;-73
2023/04/23 07:45:19;;;;;;;8.87;4.97;;;17.20;99.90;;;;;;4994081;28;20646;-72
2023/04/23 07:47:48;;;;;;;8.70;5.17;;;17.30;99.90;;;;;;4995283;28;20200;-72
2023/04/23 07:50:15;;;;;;;9.07;4.87;;;17.30;98.90;;;;;;4995376;28;20638;-75
2023/04/23 07:52:42;;;;;;;7.57;4.70;;;17.40;98.50;;;;;;4994355;28;20274;-73
2023/04/23 07:55:09;;;;;;;8.93;5.10;;;17.50;95.90;;;;;;4992807;28;20205;-73
2023/04/23 07:57:36;;;;;;;10.43;5.17;;;17.50;95.10;;;;;;4995259;28;20275;-72
2023/04/23 08:00:08;;;;;;;12.53;5.13;;;17.60;96.30;;;;;;4993883;28;20205;-74
2023/04/23 08:02:34;;;;;;;8.90;4.70;;;17.60;95.60;;;;;;4993552;28;20203;-72
2023/04/23 08:05:02;;;;;;;6.60;4.53;;;18.10;95.20;;;;;;4995193;28;20597;-75
2023/04/23 08:07:29;;;;;;;9.77;4.67;;;19.40;93.60;;;;;;4993862;28;20208;-72
2023/04/23 08:10:01;;;;;;;10.97;4.90;;;20.80;89.00;;;;;;4995288;28;20236;-75
2023/04/23 08:12:29;;;;;;;9.33;4.70;;;21.70;77.90;;;;;;4993597;28;20204;-72
2023/04/23 08:14:56;;;;;;;7.93;4.60;;;21.70;70.00;;;;;;4993755;28;20192;-75
2023/04/23 08:17:24;;;;;;;6.80;4.27;;;21.90;70.60;;;;;;4993318;28;20207;-78
2023/04/23 08:19:50;;;;;;;7.53;4.87;;;22.30;67.20;;;;;;4993245;28;20228;-76
2023/04/23 08:22:17;;;;;;;8.25;4.97;;;22.60;64.20;;;;;;4993036;28;20235;-77
2023/04/23 08:24:46;;;;;;;8.68;4.43;;;22.90;62.40;;;;;;4995203;28;20619;-77
2023/04/23 08:27:13;;;;;;;7.40;4.53;;;22.80;59.60;;;;;;4994455;28;20211;-76
2023/04/23 08:29:39;;;;;;;6.88;4.53;;;23.00;59.00;;;;;;4993326;28;20220;-77
2023/04/23 08:32:07;;;;;;;6.93;4.30;;;23.20;58.90;;;;;;4994595;28;20285;-76
2023/04/23 08:34:34;;;;;;;7.18;4.00;;;23.40;57.40;;;;;;4995075;28;20220;-75
2023/04/23 08:37:01;;;;;;;5.20;4.00;;;23.60;56.40;;;;;;4993448;28;20191;-78
2023/04/23 08:39:31;;;;;;;8.40;4.38;;;23.40;55.10;;;;;;4993537;28;20243;-74
2023/04/23 08:42:10;;;;;;;6.82;4.15;;;23.20;55.40;;;;;;4992838;28;20228;-77
2023/04/23 08:44:41;;;;;;;7.07;4.07;;;22.80;55.50;;;;;;4994327;28;20563;-77
2023/04/23 08:47:13;;;;;;;7.03;4.32;;;22.30;57.00;;;;;;4993293;28;20208;-77
2023/04/23 08:49:42;;;;;;;5.97;3.83;;;22.80;58.10;;;;;;4992561;28;20220;-78
2023/04/23 08:52:24;;;;;;;8.60;4.53;;;23.50;57.40;;;;;;4990543;28;20185;-79
2023/04/23 08:54:53;;;;;;;7.03;4.43;;;23.80;55.70;;;;;;4973104;28;20452;-76
2023/04/23 08:57:21;;;;;;;7.07;4.10;;;23.80;54.30;;;;;;4973166;28;20690;-73
2023/04/23 08:59:49;;;;;;;5.53;4.13;;;23.70;54.00;;;;;;4990664;28;20208;-73
2023/04/23 09:02:16;;;;;;;7.72;4.10;;;23.50;55.20;;;;;;4994232;28;20204;-76
2023/04/23 09:04:44;;;;;;;12.27;4.53;;;23.70;54.80;;;;;;4992575;28;20255;-73
2023/04/23 09:07:12;;;;;;;7.43;4.40;;;24.10;54.60;;;;;;4992138;28;20251;-73
2023/04/23 09:09:39;;;;;;;9.27;4.35;;;24.30;52.90;;;;;;4992762;28;20231;-72
2023/04/23 09:12:08;;;;;;;5.97;3.90;;;24.10;54.30;;;;;;4992603;28;20419;-77
2023/04/23 09:14:35;;;;;;;7.25;4.05;;;24.40;54.30;;;;;;4992500;28;20204;-77
2023/04/23 09:17:02;;;;;;;7.57;4.03;;;24.40;53.60;;;;;;4995169;28;20196;-78
2023/04/23 09:19:31;;;;;;;10.18;3.90;;;24.30;55.10;;;;;;4992919;28;20216;-76
2023/04/23 09:22:00;;;;;;;6.82;3.50;;;23.90;52.10;;;;;;4991848;28;20316;-73
2023/04/23 09:24:28;;;;;;;6.05;3.60;;;23.90;52.50;;;;;;4992392;28;20204;-75
2023/04/23 09:26:57;;;;;;;6.78;3.80;;;24.30;53.00;;;;;;4993525;28;20229;-78
2023/04/23 09:29:24;;;;;;;7.00;4.03;;;24.40;51.60;;;;;;4992153;28;20216;-74
2023/04/23 09:31:54;;;;;;;5.80;4.10;;;24.60;51.70;;;;;;4993643;28;20200;-75
2023/04/23 09:34:23;;;;;;;7.57;3.90;;;24.60;52.70;;;;;;4991938;28;20216;-76
2023/04/23 09:36:51;;;;;;;5.65;3.88;;;24.70;52.70;;;;;;4991561;28;20288;-78
2023/04/23 09:39:21;;;;;;;7.00;4.03;;;24.50;51.10;;;;;;4992067;28;20189;-77
2023/04/23 09:41:52;;;;;;;8.73;4.57;;;25.00;52.00;;;;;;4993096;28;20243;-76
2023/04/23 09:44:21;;;;;;;5.72;4.00;;;25.30;51.50;;;;;;4991845;28;20204;-78
2023/04/23 09:46:48;;;;;;;6.45;4.30;;;25.60;51.40;;;;;;4991694;28;20642;-76
2023/04/23 09:49:16;;;;;;;14.55;4.25;;;25.70;49.60;;;;;;4993171;28;20212;-77
2023/04/23 09:51:48;;;;;;;5.32;3.45;;;25.70;50.10;;;;;;4991583;28;20208;-75
2023/04/23 09:54:17;;;;;;;4.90;3.42;;;25.50;50.00;;;;;;4991897;28;20566;-76
2023/04/23 09:56:49;;;;;;;8.90;3.90;;;25.60;49.30;;;;;;4991808;28;20205;-73
2023/04/23 09:59:23;;;;;;;6.95;3.70;;;25.80;49.60;;;;;;4992405;28;20280;-77
2023/04/23 10:02:06;;;;;;;8.25;4.10;;;26.00;49.90;;;;;;4991910;28;20207;-76
2023/04/23 10:04:34;;;;;;;6.68;4.20;;;26.60;50.00;;;;;;4993421;28;20193;-78
2023/04/23 10:07:03;;;;;;;8.45;3.85;;;27.00;49.60;;;;;;4991599;28;20197;-76
2023/04/23 10:09:46;;;;;;;5.38;3.45;;;27.40;48.50;;;;;;4992700;28;20757;-75
2023/04/23 10:12:13;;;;;;;6.25;3.80;;;27.60;48.20;;;;;;4992088;28;20247;-76
2023/04/23 10:14:45;;;;;;;6.78;3.70;;;27.90;46.70;;;;;;4991770;28;20208;-76
2023/04/23 10:17:12;;;;;;;7.82;3.70;;;27.50;46.30;;;;;;4991314;28;20189;-74
2023/04/23 10:19:41;;;;;;;5.75;3.80;;;27.60;47.00;;;;;;4995744;28;20278;-75
2023/04/23 10:22:10;;;;;;;6.78;4.05;;;27.70;47.10;;;;;;4996457;28;20240;-75
2023/04/23 10:24:48;;;;;;;6.00;3.95;;;27.90;46.50;;;;;;4996950;28;20185;-72
2023/04/23 10:27:16;;;;;;;6.57;3.47;;;28.20;45.90;;;;;;4995298;28;20207;-72
2023/04/23 10:30:05;;;;;;;4.22;3.40;;;28.50;45.90;;;;;;4995248;28;20282;-78
2023/04/23 10:32:37;;;;;;;5.15;3.42;;;28.70;45.80;;;;;;4995454;28;20207;-72
2023/04/23 10:35:06;;;;;;;8.95;3.50;;;29.00;44.50;;;;;;4995470;28;20217;-71
2023/04/23 10:37:34;;;;;;;5.82;3.20;;;29.30;43.90;;;;;;4996699;28;20195;-72
2023/04/23 10:40:11;;;;;;;3.83;3.20;;;29.00;41.20;;;;;;4995660;28;20200;-72
2023/04/23 10:42:43;;;;;;;3.80;3.08;;;28.20;43.10;;;;;;4995258;28;20205;-71
2023/04/23 10:45:20;;;;;;;4.55;3.10;;;28.40;42.80;;;;;;4978783;28;20200;-73
2023/04/23 10:47:54;;;;;;;5.75;3.15;;;28.10;44.10;;;;;;4995083;28;20661;-71
2023/04/23 10:50:24;;;;;;;5.47;3.20;;;28.50;43.40;;;;;;4994819;28;20228;-71
2023/04/23 10:52:55;;;;;;;5.70;3.20;;;28.60;42.60;;;;;;4995213;28;20185;-72
2023/04/23 10:55:28;;;;;;;5.68;3.00;;;29.40;42.90;;;;;;4995203;28;20205;-73
2023/04/23 10:57:58;;;;;;;5.68;3.38;;;29.70;43.50;;;;;;4994821;28;20200;-74
2023/04/23 11:00:47;;;;;;;5.20;3.40;;;30.00;42.30;;;;;;4995247;28;20291;-76
2023/04/23 11:03:38;;;;;;;5.28;3.13;;;30.60;42.10;;;;;;4995260;28;20201;-72
2023/04/23 11:06:14;;;;;;;4.90;3.55;;;30.10;40.50;;;;;;4994724;28;20291;-74
2023/04/23 11:08:55;;;;;;;4.88;3.20;;;30.40;41.90;;;;;;4994880;28;20533;-74
2023/04/23 11:11:39;;;;;;;4.25;2.97;;;30.20;40.00;;;;;;4996025;28;20217;-79
2023/04/23 11:14:15;;;;;;;4.70;3.25;;;29.90;40.30;;;;;;4996027;28;20189;-73
2023/04/23 11:16:43;;;;;;;5.07;3.25;;;30.00;41.00;;;;;;4994470;28;20299;-78
2023/04/23 11:19:14;;;;;;;5.60;3.47;;;30.30;40.00;;;;;;4994665;28;20205;-74
2023/04/23 11:21:59;;;;;;;4.47;3.00;;;30.00;39.30;;;;;;4994322;28;20233;-81
2023/04/23 11:24:41;;;;;;;3.85;2.80;;;30.80;39.80;;;;;;4995819;28;20647;-80
2023/04/23 11:27:14;;;;;;;4.50;3.10;;;31.20;39.80;;;;;;4994220;28;20196;-75
2023/04/23 11:29:43;;;;;;;5.65;3.30;;;31.20;39.40;;;;;;4994104;28;20239;-75
2023/04/23 11:32:12;;;;;;;4.28;3.13;;;31.00;39.30;;;;;;4994244;28;20557;-75
2023/04/23 11:34:43;;;;;;;4.10;3.00;;;30.60;40.10;;;;;;4994017;28;20751;-74
2023/04/23 11:37:11;;;;;;;5.43;3.05;;;30.70;39.30;;;;;;4994400;28;20251;-73
2023/04/23 11:39:43;;;;;;;5.03;2.92;;;31.10;39.50;;;;;;4994234;28;20296;-77
2023/04/23 11:42:13;;;;;;;5.90;3.20;;;31.70;38.60;;;;;;4977915;28;20208;-75
2023/04/23 11:44:41;;;;;;;4.30;3.00;;;31.20;38.90;;;;;;4994468;28;20196;-74
2023/04/23 11:47:10;;;;;;;4.28;3.10;;;31.20;38.10;;;;;;4993662;28;20208;-73
2023/04/23 11:49:41;;;;;;;7.55;3.63;;;30.00;38.90;;;;;;4995249;28;20279;-74
2023/04/23 11:52:10;;;;;;;4.45;3.08;;;30.90;39.20;;;;;;4994218;28;20200;-73
2023/04/23 11:54:40;;;;;;;4.35;3.08;;;31.80;38.70;;;;;;4995050;28;20205;-75
2023/04/23 11:57:10;;;;;;;6.20;3.47;;;32.50;37.40;;;;;;4993814;28;20207;-78
2023/04/23 11:59:38;;;;;;;5.85;3.60;;;33.30;36.60;;;;;;4993677;28;20197;-81
2023/04/23 12:02:05;;;;;;;5.60;3.33;;;33.70;36.50;;;;;;4995281;28;20220;-77
2023/04/23 12:04:35;;;;;;;3.50;3.20;;;33.20;35.00;;;;;;4994078;28;20197;-77
2023/04/23 12:07:05;;;;;;;4.45;3.30;;;33.10;36.10;;;;;;4994808;28;20193;-76
2023/04/23 12:09:59;;;;;;;5.88;3.33;;;33.80;35.30;;;;;;4993612;28;20237;-77
2023/04/23 12:12:34;;;;;;;13.48;4.03;;;32.90;34.90;;;;;;4994707;28;20654;-78
2023/04/23 12:15:06;;;;;;;4.97;3.33;;;32.90;35.30;;;;;;4968376;23;20233;-88
2023/04/23 12:17:33;;;;;;;5.88;3.33;;;33.10;35.10;;;;;;4965687;28;20202;-81
2023/04/23 12:20:06;;;;;;;4.18;3.00;;;33.30;35.90;;;;;;4960364;28;20228;-92
2023/04/23 12:22:33;;;;;;;3.97;3.33;;;33.60;34.50;;;;;;4961550;28;20204;-89
2023/04/23 12:25:07;;;;;;;4.90;3.50;;;33.40;35.10;;;;;;4976268;28;20200;-87
2023/04/23 12:27:39;;;;;;;8.00;3.72;;;32.00;35.40;;;;;;4965643;28;20201;-80
2023/04/23 12:30:10;;;;;;;4.68;3.33;;;32.00;36.60;;;;;;4982596;28;20213;-90
2023/04/23 12:32:37;;;;;;;3.58;3.13;;;32.70;36.00;;;;;;4970480;28;20236;-87
2023/04/23 12:35:09;;;;;;;3.70;3.20;;;32.70;35.70;;;;;;4977113;28;20253;-78
2023/04/23 12:37:37;;;;;;;4.65;3.40;;;32.60;35.70;;;;;;4977125;28;20215;-79
2023/04/23 12:40:05;;;;;;;5.85;3.50;;;32.90;36.10;;;;;;4981690;28;20201;-87
2023/04/23 12:42:34;;;;;;;4.28;3.30;;;31.50;35.30;;;;;;4993845;28;20216;-75
2023/04/23 12:45:06;;;;;;;6.38;3.60;;;32.40;37.10;;;;;;4960970;28;20224;-78
2023/04/23 12:47:50;;;;;;;5.53;3.30;;;32.00;35.10;;;;;;4961179;28;20263;-78